sensor_id;sensor_type;location;lat;lon;timestamp;pressure;altitude;pressure_sealevel;temperature;humidity
55068;BME280;40965;52.368;9.712;2022-11-20T00:00:35;100634.59;;;-4.27;100.00
55068;BME280;40965;52.368;9.712;2022-11-20T00:03:05;100640.75;;;-4.23;100.00
55068;BME280;40965;52.368;9.712;2022-11-20T00:05:39;100644.34;;;-4.20;100.00
55068;BME280;40965;52.368;9.712;2022-11-20T00:08:41;100641.84;;;-4.18;100.00
55068;BME280;40965;52.368;9.712;2022-11-20T00:11:22;100642.00;;;-4.15;100.00
55068;BME280;40965;52.368;9.712;2022-11-20T00:13:57;100644.63;;;-4.13;100.00
55068;BME280;40965;52.368;9.712;2022-11-20T00:16:32;100633.53;;;-4.14;100.00
55068;BME280;40965;52.368;9.712;2022-11-20T00:19:04;100631.84;;;-4.13;100.00
55068;BME280;40965;52.368;9.712;2022-11-20T00:21:32;100636.81;;;-4.17;100.00
55068;BME280;40965;52.368;9.712;2022-11-20T00:24:01;100634.31;;;-4.15;100.00
55068;BME280;40965;52.368;9.712;2022-11-20T00:26:36;100631.69;;;-4.17;100.00
55068;BME280;40965;52.368;9.712;2022-11-20T00:29:16;100643.63;;;-4.17;100.00
55068;BME280;40965;52.368;9.712;2022-11-20T00:31:43;100633.59;;;-4.12;100.00
55068;BME280;40965;52.368;9.712;2022-11-20T00:34:11;100644.47;;;-4.17;100.00
55068;BME280;40965;52.368;9.712;2022-11-20T00:36:42;100632.09;;;-4.25;100.00
55068;BME280;40965;52.368;9.712;2022-11-20T00:39:14;100636.09;;;-4.30;100.00
55068;BME280;40965;52.368;9.712;2022-11-20T00:41:48;100623.91;;;-4.36;100.00
55068;BME280;40965;52.368;9.712;2022-11-20T00:44:15;100623.75;;;-4.39;100.00
55068;BME280;40965;52.368;9.712;2022-11-20T00:46:43;100621.94;;;-4.42;100.00
55068;BME280;40965;52.368;9.712;2022-11-20T00:49:18;100629.34;;;-4.46;100.00
55068;BME280;40965;52.368;9.712;2022-11-20T00:51:48;100627.66;;;-4.46;100.00
55068;BME280;40965;52.368;9.712;2022-11-20T00:54:22;100615.84;;;-4.44;100.00
55068;BME280;40965;52.368;9.712;2022-11-20T00:56:56;100620.22;;;-4.41;100.00
55068;BME280;40965;52.368;9.712;2022-11-20T00:59:23;100621.81;;;-4.43;100.00
55068;BME280;40965;52.368;9.712;2022-11-20T01:01:51;100619.25;;;-4.43;100.00
55068;BME280;40965;52.368;9.712;2022-11-20T01:04:19;100622.78;;;-4.41;100.00
55068;BME280;40965;52.368;9.712;2022-11-20T01:06:54;100625.28;;;-4.43;100.00
55068;BME280;40965;52.368;9.712;2022-11-20T01:09:23;100625.28;;;-4.43;100.00
55068;BME280;40965;52.368;9.712;2022-11-20T01:11:59;100623.84;;;-4.38;100.00
55068;BME280;40965;52.368;9.712;2022-11-20T01:14:29;100626.59;;;-4.33;100.00
55068;BME280;40965;52.368;9.712;2022-11-20T01:16:56;100626.59;;;-4.33;100.00
55068;BME280;40965;52.368;9.712;2022-11-20T01:19:25;100621.50;;;-4.33;100.00
55068;BME280;40965;52.368;9.712;2022-11-20T01:21:59;100621.50;;;-4.33;100.00
55068;BME280;40965;52.368;9.712;2022-11-20T01:24:33;100615.44;;;-4.35;100.00
55068;BME280;40965;52.368;9.712;2022-11-20T01:27:05;100616.25;;;-4.36;100.00
55068;BME280;40965;52.368;9.712;2022-11-20T01:29:36;100608.72;;;-4.33;100.00
55068;BME280;40965;52.368;9.712;2022-11-20T01:32:04;100611.34;;;-4.32;100.00
55068;BME280;40965;52.368;9.712;2022-11-20T01:34:33;100605.22;;;-4.35;100.00
55068;BME280;40965;52.368;9.712;2022-11-20T01:36:59;100607.78;;;-4.35;100.00
55068;BME280;40965;52.368;9.712;2022-11-20T01:39:28;100606.16;;;-4.33;100.00
55068;BME280;40965;52.368;9.712;2022-11-20T01:41:59;100595.28;;;-4.29;100.00
55068;BME280;40965;52.368;9.712;2022-11-20T01:44:56;100599.06;;;-4.22;100.00
55068;BME280;40965;52.368;9.712;2022-11-20T01:47:39;100595.03;;;-4.17;100.00
55068;BME280;40965;52.368;9.712;2022-11-20T01:50:15;100586.41;;;-4.19;100.00
55068;BME280;40965;52.368;9.712;2022-11-20T01:52:49;100591.75;;;-4.14;100.00
55068;BME280;40965;52.368;9.712;2022-11-20T01:55:53;100587.00;;;-4.07;100.00
55068;BME280;40965;52.368;9.712;2022-11-20T01:58:35;100585.66;;;-4.00;100.00
55068;BME280;40965;52.368;9.712;2022-11-20T02:01:12;100580.25;;;-3.88;100.00
55068;BME280;40965;52.368;9.712;2022-11-20T02:03:46;100578.84;;;-3.82;100.00
55068;BME280;40965;52.368;9.712;2022-11-20T02:06:23;100575.69;;;-3.76;100.00
55068;BME280;40965;52.368;9.712;2022-11-20T02:08:53;100579.41;;;-3.69;100.00
55068;BME280;40965;52.368;9.712;2022-11-20T02:11:35;100583.88;;;-3.65;100.00
55068;BME280;40965;52.368;9.712;2022-11-20T02:14:01;100569.47;;;-3.63;100.00
55068;BME280;40965;52.368;9.712;2022-11-20T02:16:38;100574.84;;;-3.58;100.00
55068;BME280;40965;52.368;9.712;2022-11-20T02:22:08;100580.38;;;-3.49;100.00
55068;BME280;40965;52.368;9.712;2022-11-20T02:24:45;100577.88;;;-3.47;100.00
55068;BME280;40965;52.368;9.712;2022-11-20T02:27:16;100574.53;;;-3.46;100.00
55068;BME280;40965;52.368;9.712;2022-11-20T02:29:56;100576.47;;;-3.41;100.00
55068;BME280;40965;52.368;9.712;2022-11-20T02:32:37;100567.19;;;-3.39;100.00
55068;BME280;40965;52.368;9.712;2022-11-20T02:37:54;100563.31;;;-3.30;100.00
55068;BME280;40965;52.368;9.712;2022-11-20T02:40:28;100558.31;;;-3.27;100.00
55068;BME280;40965;52.368;9.712;2022-11-20T02:42:59;100559.19;;;-3.27;100.00
55068;BME280;40965;52.368;9.712;2022-11-20T02:45:29;100554.94;;;-3.26;100.00
55068;BME280;40965;52.368;9.712;2022-11-20T02:47:58;100558.25;;;-3.29;100.00
55068;BME280;40965;52.368;9.712;2022-11-20T02:50:26;100554.75;;;-3.31;100.00
55068;BME280;40965;52.368;9.712;2022-11-20T02:52:54;100551.97;;;-3.36;100.00
55068;BME280;40965;52.368;9.712;2022-11-20T02:55:23;100550.09;;;-3.40;100.00
55068;BME280;40965;52.368;9.712;2022-11-20T02:57:50;100549.88;;;-3.44;100.00
55068;BME280;40965;52.368;9.712;2022-11-20T03:00:20;100559.38;;;-3.42;100.00
55068;BME280;40965;52.368;9.712;2022-11-20T03:03:03;100559.53;;;-3.39;100.00
55068;BME280;40965;52.368;9.712;2022-11-20T03:05:35;100550.09;;;-3.40;100.00
55068;BME280;40965;52.368;9.712;2022-11-20T03:08:03;100549.06;;;-3.43;100.00
55068;BME280;40965;52.368;9.712;2022-11-20T03:10:33;100546.31;;;-3.48;100.00
55068;BME280;40965;52.368;9.712;2022-11-20T03:13:08;100548.63;;;-3.53;100.00
55068;BME280;40965;52.368;9.712;2022-11-20T03:15:41;100548.63;;;-3.53;100.00
55068;BME280;40965;52.368;9.712;2022-11-20T03:18:09;100549.59;;;-3.51;100.00
55068;BME280;40965;52.368;9.712;2022-11-20T03:20:56;100552.47;;;-3.43;100.00
55068;BME280;40965;52.368;9.712;2022-11-20T03:23:29;100546.97;;;-3.33;100.00
55068;BME280;40965;52.368;9.712;2022-11-20T03:26:17;100537.56;;;-3.34;100.00
55068;BME280;40965;52.368;9.712;2022-11-20T03:28:49;100532.28;;;-3.37;100.00
55068;BME280;40965;52.368;9.712;2022-11-20T03:31:21;100533.09;;;-3.38;100.00
55068;BME280;40965;52.368;9.712;2022-11-20T03:33:50;100531.38;;;-3.39;100.00
55068;BME280;40965;52.368;9.712;2022-11-20T03:36:20;100523.81;;;-3.36;100.00
55068;BME280;40965;52.368;9.712;2022-11-20T03:38:48;100530.81;;;-3.32;100.00
55068;BME280;40965;52.368;9.712;2022-11-20T03:41:21;100532.53;;;-3.32;100.00
55068;BME280;40965;52.368;9.712;2022-11-20T03:43:54;100525.63;;;-3.33;100.00
55068;BME280;40965;52.368;9.712;2022-11-20T03:46:26;100532.66;;;-3.29;100.00
55068;BME280;40965;52.368;9.712;2022-11-20T03:49:36;100531.91;;;-3.26;100.00
55068;BME280;40965;52.368;9.712;2022-11-20T03:52:04;100522.47;;;-3.27;100.00
55068;BME280;40965;52.368;9.712;2022-11-20T03:54:31;100517.22;;;-3.30;100.00
55068;BME280;40965;52.368;9.712;2022-11-20T03:57:02;100513.88;;;-3.29;100.00
55068;BME280;40965;52.368;9.712;2022-11-20T03:59:41;100518.19;;;-3.28;100.00
55068;BME280;40965;52.368;9.712;2022-11-20T04:02:09;100505.38;;;-3.28;100.00
55068;BME280;40965;52.368;9.712;2022-11-20T04:04:42;100503.91;;;-3.23;100.00
55068;BME280;40965;52.368;9.712;2022-11-20T04:07:15;100505.03;;;-3.17;100.00
55068;BME280;40965;52.368;9.712;2022-11-20T04:09:45;100502.72;;;-3.10;100.00
55068;BME280;40965;52.368;9.712;2022-11-20T04:12:13;100502.94;;;-3.06;100.00
55068;BME280;40965;52.368;9.712;2022-11-20T04:14:40;100504.88;;;-3.00;100.00
55068;BME280;40965;52.368;9.712;2022-11-20T04:17:08;100504.28;;;-2.94;100.00
55068;BME280;40965;52.368;9.712;2022-11-20T04:19:37;100502.66;;;-2.92;100.00
55068;BME280;40965;52.368;9.712;2022-11-20T04:22:05;100493.50;;;-2.87;100.00
55068;BME280;40965;52.368;9.712;2022-11-20T04:24:40;100497.81;;;-2.86;100.00
55068;BME280;40965;52.368;9.712;2022-11-20T04:27:09;100496.06;;;-2.87;100.00
55068;BME280;40965;52.368;9.712;2022-11-20T04:29:37;100496.94;;;-2.87;100.00
55068;BME280;40965;52.368;9.712;2022-11-20T04:32:05;100496.09;;;-2.86;100.00
55068;BME280;40965;52.368;9.712;2022-11-20T04:34:32;100497.00;;;-2.85;100.00
55068;BME280;40965;52.368;9.712;2022-11-20T04:37:03;100495.47;;;-2.81;100.00
55068;BME280;40965;52.368;9.712;2022-11-20T04:39:31;100495.50;;;-2.80;100.00
55068;BME280;40965;52.368;9.712;2022-11-20T04:41:59;100491.25;;;-2.79;100.00
55068;BME280;40965;52.368;9.712;2022-11-20T04:44:45;100493.81;;;-2.79;100.00
55068;BME280;40965;52.368;9.712;2022-11-20T04:47:19;100495.47;;;-2.81;100.00
55068;BME280;40965;52.368;9.712;2022-11-20T04:49:59;100493.81;;;-2.79;100.00
55068;BME280;40965;52.368;9.712;2022-11-20T04:52:29;100503.25;;;-2.78;100.00
55068;BME280;40965;52.368;9.712;2022-11-20T04:55:01;100501.50;;;-2.79;100.00
55068;BME280;40965;52.368;9.712;2022-11-20T04:57:29;100507.25;;;-2.85;100.00
55068;BME280;40965;52.368;9.712;2022-11-20T05:00:10;100503.16;;;-2.81;100.00
55068;BME280;40965;52.368;9.712;2022-11-20T05:02:39;100500.63;;;-2.80;100.00
55068;BME280;40965;52.368;9.712;2022-11-20T05:05:12;100501.66;;;-2.76;100.00
55068;BME280;40965;52.368;9.712;2022-11-20T05:07:42;100493.97;;;-2.76;100.00
55068;BME280;40965;52.368;9.712;2022-11-20T05:10:09;100506.09;;;-2.72;100.00
55068;BME280;40965;52.368;9.712;2022-11-20T05:12:37;100498.47;;;-2.71;100.00
55068;BME280;40965;52.368;9.712;2022-11-20T05:15:06;100501.16;;;-2.68;100.00
55068;BME280;40965;52.368;9.712;2022-11-20T05:17:57;100491.84;;;-2.66;100.00
55068;BME280;40965;52.368;9.712;2022-11-20T05:20:28;100496.16;;;-2.64;100.00
55068;BME280;40965;52.368;9.712;2022-11-20T05:23:01;100483.34;;;-2.64;100.00
55068;BME280;40965;52.368;9.712;2022-11-20T05:25:33;100480.84;;;-2.63;100.00
55068;BME280;40965;52.368;9.712;2022-11-20T05:28:04;100473.16;;;-2.63;100.00
55068;BME280;40965;52.368;9.712;2022-11-20T05:30:31;100487.91;;;-2.57;100.00
55068;BME280;40965;52.368;9.712;2022-11-20T05:33:00;100488.09;;;-2.53;100.00
55068;BME280;40965;52.368;9.712;2022-11-20T05:35:28;100479.72;;;-2.48;100.00
55068;BME280;40965;52.368;9.712;2022-11-20T05:37:56;100482.34;;;-2.47;100.00
55068;BME280;40965;52.368;9.712;2022-11-20T05:40:25;100480.78;;;-2.43;100.00
55068;BME280;40965;52.368;9.712;2022-11-20T05:42:56;100471.41;;;-2.43;99.77
55068;BME280;40965;52.368;9.712;2022-11-20T05:45:23;100476.69;;;-2.40;98.98
55068;BME280;40965;52.368;9.712;2022-11-20T05:47:52;100473.97;;;-2.43;99.43
55068;BME280;40965;52.368;9.712;2022-11-20T05:50:23;100472.97;;;-2.46;99.20
55068;BME280;40965;52.368;9.712;2022-11-20T05:52:54;100471.34;;;-2.44;98.61
55068;BME280;40965;52.368;9.712;2022-11-20T05:55:27;100473.91;;;-2.44;98.82
55068;BME280;40965;52.368;9.712;2022-11-20T05:57:58;100463.72;;;-2.43;99.27
55068;BME280;40965;52.368;9.712;2022-11-20T06:00:25;100463.53;;;-2.47;99.40
55068;BME280;40965;52.368;9.712;2022-11-20T06:02:53;100455.97;;;-2.44;99.72
55068;BME280;40965;52.368;9.712;2022-11-20T06:05:21;100461.97;;;-2.44;98.42
55068;BME280;40965;52.368;9.712;2022-11-20T06:07:48;100458.59;;;-2.43;98.73
55068;BME280;40965;52.368;9.712;2022-11-20T06:10:18;100454.47;;;-2.39;99.13
55068;BME280;40965;52.368;9.712;2022-11-20T06:12:49;100456.22;;;-2.38;98.52
55068;BME280;40965;52.368;9.712;2022-11-20T06:15:19;100457.91;;;-2.39;98.60
55068;BME280;40965;52.368;9.712;2022-11-20T06:17:54;100454.47;;;-2.39;98.52
55068;BME280;40965;52.368;9.712;2022-11-20T06:20:36;100449.28;;;-2.41;98.23
55068;BME280;40965;52.368;9.712;2022-11-20T06:23:04;100450.94;;;-2.41;98.98
55068;BME280;40965;52.368;9.712;2022-11-20T06:25:42;100474.78;;;-2.44;98.17
55068;BME280;40965;52.368;9.712;2022-11-20T06:28:11;100469.53;;;-2.47;98.51
55068;BME280;40965;52.368;9.712;2022-11-20T06:30:45;100453.28;;;-2.47;98.91
55068;BME280;40965;52.368;9.712;2022-11-20T06:33:13;100452.59;;;-2.43;99.09
55068;BME280;40965;52.368;9.712;2022-11-20T06:35:44;100458.72;;;-2.40;98.77
55068;BME280;40965;52.368;9.712;2022-11-20T06:38:11;100454.41;;;-2.41;98.62
55068;BME280;40965;52.368;9.712;2022-11-20T06:40:43;100452.75;;;-2.39;98.70
55068;BME280;40965;52.368;9.712;2022-11-20T06:43:12;100441.00;;;-2.34;98.30
55068;BME280;40965;52.368;9.712;2022-11-20T06:45:39;100447.03;;;-2.33;97.78
55068;BME280;40965;52.368;9.712;2022-11-20T06:48:12;100447.78;;;-2.36;97.64
55068;BME280;40965;52.368;9.712;2022-11-20T06:50:39;100450.34;;;-2.36;97.65
55068;BME280;40965;52.368;9.712;2022-11-20T06:53:06;100455.41;;;-2.37;97.69
55068;BME280;40965;52.368;9.712;2022-11-20T06:55:33;100456.22;;;-2.38;97.30
55068;BME280;40965;52.368;9.712;2022-11-20T06:57:59;100450.09;;;-2.42;97.76
55068;BME280;40965;52.368;9.712;2022-11-20T07:00:26;100456.97;;;-2.41;98.16
55068;BME280;40965;52.368;9.712;2022-11-20T07:02:53;100446.78;;;-2.39;98.51
55068;BME280;40965;52.368;9.712;2022-11-20T07:05:20;100443.47;;;-2.37;98.11
55068;BME280;40965;52.368;9.712;2022-11-20T07:07:46;100446.13;;;-2.34;98.48
55068;BME280;40965;52.368;9.712;2022-11-20T07:10:14;100434.22;;;-2.33;97.84
55068;BME280;40965;52.368;9.712;2022-11-20T07:12:41;100443.56;;;-2.34;97.76
55068;BME280;40965;52.368;9.712;2022-11-20T07:15:10;100433.31;;;-2.34;97.93
55068;BME280;40965;52.368;9.712;2022-11-20T07:17:37;100436.03;;;-2.30;97.91
55068;BME280;40965;52.368;9.712;2022-11-20T07:20:04;100436.13;;;-2.27;98.04
55068;BME280;40965;52.368;9.712;2022-11-20T07:22:31;100434.38;;;-2.28;97.66
55068;BME280;40965;52.368;9.712;2022-11-20T07:24:58;100436.81;;;-2.31;97.49
55068;BME280;40965;52.368;9.712;2022-11-20T07:27:25;100440.31;;;-2.29;97.24
55068;BME280;40965;52.368;9.712;2022-11-20T07:29:52;100441.16;;;-2.30;97.28
55068;BME280;40965;52.368;9.712;2022-11-20T07:32:19;100433.25;;;-2.35;97.04
55068;BME280;40965;52.368;9.712;2022-11-20T07:34:47;100434.06;;;-2.36;97.16
55068;BME280;40965;52.368;9.712;2022-11-20T07:37:14;100432.50;;;-2.33;97.61
55068;BME280;40965;52.368;9.712;2022-11-20T07:39:41;100439.34;;;-2.33;96.76
55068;BME280;40965;52.368;9.712;2022-11-20T07:42:09;100440.16;;;-2.34;97.56
55068;BME280;40965;52.368;9.712;2022-11-20T07:44:37;100451.47;;;-2.29;97.83
55068;BME280;40965;52.368;9.712;2022-11-20T07:47:09;100452.31;;;-2.28;97.22
55068;BME280;40965;52.368;9.712;2022-11-20T07:49:38;100448.91;;;-2.29;97.48
55068;BME280;40965;52.368;9.712;2022-11-20T07:52:06;100442.06;;;-2.28;97.17
55068;BME280;40965;52.368;9.712;2022-11-20T07:54:33;100444.53;;;-2.31;97.11
55068;BME280;40965;52.368;9.712;2022-11-20T07:57:03;100457.44;;;-2.28;97.44
55068;BME280;40965;52.368;9.712;2022-11-20T07:59:30;100455.69;;;-2.29;97.47
55068;BME280;40965;52.368;9.712;2022-11-20T08:01:57;100439.56;;;-2.27;97.20
55068;BME280;40965;52.368;9.712;2022-11-20T08:04:23;100441.31;;;-2.26;97.47
55068;BME280;40965;52.368;9.712;2022-11-20T08:06:52;100445.75;;;-2.22;97.27
55068;BME280;40965;52.368;9.712;2022-11-20T08:09:18;100448.50;;;-2.17;97.29
55068;BME280;40965;52.368;9.712;2022-11-20T08:11:46;100439.25;;;-2.13;97.22
55068;BME280;40965;52.368;9.712;2022-11-20T08:14:38;100439.50;;;-2.07;97.38
55068;BME280;40965;52.368;9.712;2022-11-20T08:17:08;100440.50;;;-2.02;96.93
55068;BME280;40965;52.368;9.712;2022-11-20T08:19:35;100450.03;;;-2.00;96.87
55068;BME280;40965;52.368;9.712;2022-11-20T08:22:09;100449.22;;;-1.98;97.05
55068;BME280;40965;52.368;9.712;2022-11-20T08:24:35;100457.09;;;-1.94;96.67
55068;BME280;40965;52.368;9.712;2022-11-20T08:27:02;100450.41;;;-1.90;96.57
55068;BME280;40965;52.368;9.712;2022-11-20T08:29:30;100450.56;;;-1.86;95.93
55068;BME280;40965;52.368;9.712;2022-11-20T08:31:57;100460.06;;;-1.83;96.52
55068;BME280;40965;52.368;9.712;2022-11-20T08:34:25;100455.13;;;-1.78;96.26
55068;BME280;40965;52.368;9.712;2022-11-20T08:36:52;100452.75;;;-1.72;95.94
55068;BME280;40965;52.368;9.712;2022-11-20T08:39:21;100449.38;;;-1.71;95.19
55068;BME280;40965;52.368;9.712;2022-11-20T08:41:49;100441.88;;;-1.67;95.31
55068;BME280;40965;52.368;9.712;2022-11-20T08:44:19;100450.81;;;-1.55;95.04
55068;BME280;40965;52.368;9.712;2022-11-20T08:46:46;100434.84;;;-1.48;94.05
55068;BME280;40965;52.368;9.712;2022-11-20T08:49:13;100442.91;;;-1.37;93.86
55068;BME280;40965;52.368;9.712;2022-11-20T08:51:41;100447.41;;;-1.31;93.14
55068;BME280;40965;52.368;9.712;2022-11-20T08:54:10;100446.66;;;-1.29;92.81
55068;BME280;40965;52.368;9.712;2022-11-20T08:56:36;100445.28;;;-1.43;91.13
55068;BME280;40965;52.368;9.712;2022-11-20T08:59:03;100442.78;;;-1.42;92.84
55068;BME280;40965;52.368;9.712;2022-11-20T09:01:30;100451.63;;;-1.34;92.65
55068;BME280;40965;52.368;9.712;2022-11-20T09:03:57;100443.31;;;-1.26;93.03
55068;BME280;40965;52.368;9.712;2022-11-20T09:06:25;100440.19;;;-1.18;91.92
55068;BME280;40965;52.368;9.712;2022-11-20T09:08:53;100449.06;;;-1.09;92.49
55068;BME280;40965;52.368;9.712;2022-11-20T09:11:23;100450.91;;;-1.05;91.47
55068;BME280;40965;52.368;9.712;2022-11-20T09:13:53;100447.56;;;-1.03;91.52
55068;BME280;40965;52.368;9.712;2022-11-20T09:16:20;100444.22;;;-1.00;91.38
55068;BME280;40965;52.368;9.712;2022-11-20T09:18:49;100428.97;;;-0.95;92.02
55068;BME280;40965;52.368;9.712;2022-11-20T09:21:16;100417.09;;;-0.92;91.19
55068;BME280;40965;52.368;9.712;2022-11-20T09:23:43;100416.09;;;-0.95;90.84
55068;BME280;40965;52.368;9.712;2022-11-20T09:26:13;100428.09;;;-0.96;91.59
55068;BME280;40965;52.368;9.712;2022-11-20T09:28:40;100423.22;;;-0.88;91.98
55068;BME280;40965;52.368;9.712;2022-11-20T09:31:08;100428.56;;;-0.82;92.10
55068;BME280;40965;52.368;9.712;2022-11-20T09:33:36;100427.06;;;-0.75;91.71
55068;BME280;40965;52.368;9.712;2022-11-20T09:36:03;100447.16;;;-0.63;91.41
55068;BME280;40965;52.368;9.712;2022-11-20T09:38:30;100449.94;;;-0.83;90.47
55068;BME280;40965;52.368;9.712;2022-11-20T09:47:01;100436.63;;;-0.45;90.59
55068;BME280;40965;52.368;9.712;2022-11-20T09:49:46;100442.34;;;-0.27;89.88
55068;BME280;40965;52.368;9.712;2022-11-20T09:52:47;100434.09;;;-0.17;87.64
55068;BME280;40965;52.368;9.712;2022-11-20T09:55:35;100439.91;;;-0.22;87.68
55068;BME280;40965;52.368;9.712;2022-11-20T09:58:06;100441.13;;;-0.11;85.90
55068;BME280;40965;52.368;9.712;2022-11-20T10:00:35;100440.34;;;-0.08;86.77
55068;BME280;40965;52.368;9.712;2022-11-20T10:03:45;100438.00;;;-0.01;86.64
55068;BME280;40965;52.368;9.712;2022-11-20T10:09:29;100435.41;;;0.28;85.89
55068;BME280;40965;52.368;9.712;2022-11-20T10:12:09;100443.50;;;0.41;85.31
55068;BME280;40965;52.368;9.712;2022-11-20T10:15:00;100435.00;;;0.43;83.66
55068;BME280;40965;52.368;9.712;2022-11-20T10:24:24;100421.75;;;0.31;83.64
55068;BME280;40965;52.368;9.712;2022-11-20T10:30:17;100415.41;;;0.48;84.09
55068;BME280;40965;52.368;9.712;2022-11-20T10:32:49;100412.03;;;0.51;83.55
55068;BME280;40965;52.368;9.712;2022-11-20T10:36:04;100415.53;;;0.53;83.94
55068;BME280;40965;52.368;9.712;2022-11-20T10:39:18;100413.19;;;0.62;82.00
55068;BME280;40965;52.368;9.712;2022-11-20T10:41:50;100412.97;;;0.55;81.27
55068;BME280;40965;52.368;9.712;2022-11-20T10:44:21;100408.31;;;0.41;79.74
55068;BME280;40965;52.368;9.712;2022-11-20T10:47:16;100396.28;;;0.40;79.13
55068;BME280;40965;52.368;9.712;2022-11-20T10:49:53;100399.34;;;0.27;80.24
55068;BME280;40965;52.368;9.712;2022-11-20T10:52:56;100406.34;;;0.32;79.91
55068;BME280;40965;52.368;9.712;2022-11-20T10:55:57;100398.91;;;0.42;78.75
55068;BME280;40965;52.368;9.712;2022-11-20T10:59:11;100393.16;;;0.52;78.25
55068;BME280;40965;52.368;9.712;2022-11-20T11:01:57;100393.44;;;0.61;77.35
55068;BME280;40965;52.368;9.712;2022-11-20T11:07:10;100388.63;;;0.75;76.71
55068;BME280;40965;52.368;9.712;2022-11-20T11:09:46;100386.72;;;0.67;75.99
55068;BME280;40965;52.368;9.712;2022-11-20T11:12:17;100388.91;;;0.53;76.39
55068;BME280;40965;52.368;9.712;2022-11-20T11:14:49;100381.78;;;0.44;76.38
55068;BME280;40965;52.368;9.712;2022-11-20T11:17:21;100378.09;;;0.34;77.19
55068;BME280;40965;52.368;9.712;2022-11-20T11:20:06;100378.25;;;0.40;77.61
55068;BME280;40965;52.368;9.712;2022-11-20T11:22:57;100375.78;;;0.43;76.81
55068;BME280;40965;52.368;9.712;2022-11-20T11:25:29;100363.53;;;0.36;76.94
55068;BME280;40965;52.368;9.712;2022-11-20T11:28:20;100371.53;;;0.45;77.89
55068;BME280;40965;52.368;9.712;2022-11-20T11:30:50;100369.38;;;0.61;77.49
55068;BME280;40965;52.368;9.712;2022-11-20T11:33:22;100369.66;;;0.72;76.95
55068;BME280;40965;52.368;9.712;2022-11-20T11:35:52;100369.81;;;0.78;76.17
55068;BME280;40965;52.368;9.712;2022-11-20T11:38:29;100368.13;;;0.78;75.87
55068;BME280;40965;52.368;9.712;2022-11-20T11:40:59;100368.06;;;0.77;74.74
55068;BME280;40965;52.368;9.712;2022-11-20T11:43:35;100367.13;;;0.73;76.26
55068;BME280;40965;52.368;9.712;2022-11-20T11:46:28;100369.91;;;0.81;76.59
55068;BME280;40965;52.368;9.712;2022-11-20T11:49:14;100371.53;;;0.77;76.84
55068;BME280;40965;52.368;9.712;2022-11-20T11:54:35;100369.66;;;0.72;77.82
55068;BME280;40965;52.368;9.712;2022-11-20T11:57:12;100367.25;;;0.78;77.05
55068;BME280;40965;52.368;9.712;2022-11-20T12:00:16;100359.34;;;0.72;77.13
55068;BME280;40965;52.368;9.712;2022-11-20T12:10:50;100350.31;;;0.88;75.71
55068;BME280;40965;52.368;9.712;2022-11-20T12:16:13;100344.56;;;0.98;75.63
55068;BME280;40965;52.368;9.712;2022-11-20T12:18:42;100347.16;;;0.98;75.37
55068;BME280;40965;52.368;9.712;2022-11-20T12:21:36;100346.38;;;1.02;75.67
55068;BME280;40965;52.368;9.712;2022-11-20T12:24:31;100343.72;;;0.99;74.72
55068;BME280;40965;52.368;9.712;2022-11-20T12:30:04;100338.63;;;1.01;76.43
55068;BME280;40965;52.368;9.712;2022-11-20T12:33:04;100334.28;;;0.99;75.40
55068;BME280;40965;52.368;9.712;2022-11-20T12:36:00;100327.31;;;0.95;75.08
55068;BME280;40965;52.368;9.712;2022-11-20T12:39:11;100327.25;;;0.94;75.36
55068;BME280;40965;52.368;9.712;2022-11-20T12:42:09;100327.41;;;1.00;74.80
55068;BME280;40965;52.368;9.712;2022-11-20T12:48:08;100332.19;;;1.20;73.80
55068;BME280;40965;52.368;9.712;2022-11-20T12:51:04;100331.47;;;1.25;73.47
55068;BME280;40965;52.368;9.712;2022-11-20T12:57:10;100321.22;;;1.28;72.18
55068;BME280;40965;52.368;9.712;2022-11-20T12:59:57;100313.53;;;1.30;72.97
55068;BME280;40965;52.368;9.712;2022-11-20T13:08:31;100327.97;;;1.23;73.03
55068;BME280;40965;52.368;9.712;2022-11-20T13:14:24;100317.81;;;1.29;73.62
55068;BME280;40965;52.368;9.712;2022-11-20T13:17:10;100328.66;;;1.16;72.36
55068;BME280;40965;52.368;9.712;2022-11-20T13:19:41;100320.59;;;1.01;73.06
55068;BME280;40965;52.368;9.712;2022-11-20T13:22:08;100321.16;;;0.89;74.68
55068;BME280;40965;52.368;9.712;2022-11-20T13:24:36;100320.25;;;0.88;75.01
55068;BME280;40965;52.368;9.712;2022-11-20T13:27:24;100320.22;;;0.87;74.87
55068;BME280;40965;52.368;9.712;2022-11-20T13:30:20;100319.25;;;0.81;75.82
55068;BME280;40965;52.368;9.712;2022-11-20T13:33:04;100317.53;;;0.82;76.39
55068;BME280;40965;52.368;9.712;2022-11-20T13:35:41;100314.03;;;0.78;75.74
55068;BME280;40965;52.368;9.712;2022-11-20T13:38:14;100311.44;;;0.78;76.04
55068;BME280;40965;52.368;9.712;2022-11-20T13:40:58;100308.06;;;0.81;76.63
55068;BME280;40965;52.368;9.712;2022-11-20T13:43:47;100303.59;;;0.74;76.42
55068;BME280;40965;52.368;9.712;2022-11-20T13:46:14;100308.88;;;0.78;76.71
55068;BME280;40965;52.368;9.712;2022-11-20T13:48:45;100309.78;;;0.82;76.49
55068;BME280;40965;52.368;9.712;2022-11-20T13:51:43;100302.22;;;0.88;77.55
55068;BME280;40965;52.368;9.712;2022-11-20T14:00:14;100302.75;;;0.75;77.89
55068;BME280;40965;52.368;9.712;2022-11-20T14:05:38;100305.75;;;0.58;78.73
55068;BME280;40965;52.368;9.712;2022-11-20T14:08:21;100303.16;;;0.57;79.58
55068;BME280;40965;52.368;9.712;2022-11-20T14:14:15;100295.38;;;0.55;80.47
55068;BME280;40965;52.368;9.712;2022-11-20T14:16:47;100298.03;;;0.58;80.56
55068;BME280;40965;52.368;9.712;2022-11-20T14:21:43;100293.09;;;0.66;80.86
55068;BME280;40965;52.368;9.712;2022-11-20T14:24:11;100290.44;;;0.63;81.06
55068;BME280;40965;52.368;9.712;2022-11-20T14:26:44;100285.28;;;0.63;80.88
55068;BME280;40965;52.368;9.712;2022-11-20T14:29:14;100280.94;;;0.60;81.55
55068;BME280;40965;52.368;9.712;2022-11-20T14:31:45;100273.19;;;0.60;81.62
55068;BME280;40965;52.368;9.712;2022-11-20T14:34:20;100265.47;;;0.60;81.60
55068;BME280;40965;52.368;9.712;2022-11-20T14:36:52;100269.00;;;0.64;82.07